createdAt,value
2022-08-19T00:01:26.448Z,9.75
2022-08-19T00:04:01.732Z,10.18
2022-08-19T00:06:30.602Z,9.20
2022-08-19T00:08:58.937Z,10.30
2022-08-19T00:11:27.500Z,10.43
2022-08-19T00:13:57.086Z,10.43
2022-08-19T00:16:26.471Z,9.65
2022-08-19T00:18:54.827Z,10.48
2022-08-19T00:21:22.140Z,10.07
2022-08-19T00:23:49.045Z,10.23
2022-08-19T00:26:15.889Z,10.30
2022-08-19T00:28:42.792Z,9.68
2022-08-19T00:31:10.455Z,8.80
2022-08-19T00:33:37.859Z,9.80
2022-08-19T00:36:08.193Z,10.32
2022-08-19T00:38:38.058Z,8.88
2022-08-19T00:41:06.842Z,8.95
2022-08-19T00:43:34.351Z,8.88
2022-08-19T00:46:02.461Z,8.95
2022-08-19T00:48:29.339Z,9.70
2022-08-19T00:50:56.629Z,8.45
2022-08-19T00:53:27.469Z,9.27
2022-08-19T00:55:57.748Z,8.80
2022-08-19T00:58:31.064Z,9.45
2022-08-19T01:00:57.905Z,9.52
2022-08-19T01:03:24.788Z,9.85
2022-08-19T01:05:54.308Z,9.65
2022-08-19T01:08:22.109Z,11.95
2022-08-19T01:10:53.305Z,10.40
2022-08-19T01:13:23.831Z,10.45
2022-08-19T01:15:55.916Z,10.10
2022-08-19T01:18:24.304Z,10.27
2022-08-19T01:20:52.990Z,9.35
2022-08-19T01:23:19.804Z,9.70
2022-08-19T01:25:53.415Z,9.73
2022-08-19T01:28:33.903Z,9.38
2022-08-19T01:31:27.238Z,9.27
2022-08-19T01:33:57.162Z,11.38
2022-08-19T01:36:38.024Z,9.15
2022-08-19T01:39:10.017Z,10.27
2022-08-19T01:41:37.391Z,10.00
2022-08-19T01:44:18.493Z,10.05
2022-08-19T01:46:48.461Z,11.68
2022-08-19T01:49:15.896Z,10.10
2022-08-19T01:51:42.663Z,8.68
2022-08-19T01:54:12.530Z,9.45
2022-08-19T01:56:39.720Z,9.18
2022-08-19T01:59:12.059Z,10.02
2022-08-19T02:01:39.027Z,9.20
2022-08-19T02:04:06.787Z,10.25
2022-08-19T02:06:34.232Z,11.35
2022-08-19T02:09:02.110Z,11.00
2022-08-19T02:11:32.933Z,13.95
2022-08-19T02:14:01.014Z,10.93
2022-08-19T02:16:27.919Z,10.38
2022-08-19T02:18:55.774Z,10.50
2022-08-19T02:21:24.949Z,10.45
2022-08-19T02:23:52.752Z,10.80
2022-08-19T02:26:20.386Z,13.50
2022-08-19T02:28:47.485Z,11.55
2022-08-19T02:31:17.372Z,10.48
2022-08-19T02:33:44.812Z,10.88
2022-08-19T02:36:13.053Z,11.80
2022-08-19T02:38:42.460Z,11.07
2022-08-19T02:41:18.743Z,10.32
2022-08-19T02:44:23.012Z,10.63
2022-08-19T02:46:34.266Z,12.05
2022-08-19T02:49:08.297Z,11.68
2022-08-19T02:51:41.557Z,10.18
2022-08-19T02:54:10.648Z,10.73
2022-08-19T02:56:39.170Z,13.85
2022-08-19T02:59:11.297Z,12.15
2022-08-19T03:01:41.807Z,12.02
2022-08-19T03:04:14.371Z,13.45
2022-08-19T03:06:44.129Z,11.82
2022-08-19T03:09:11.956Z,9.98
2022-08-19T03:11:39.901Z,11.85
2022-08-19T03:14:09.565Z,11.02
2022-08-19T03:16:45.455Z,12.38
2022-08-19T03:19:12.340Z,11.18
2022-08-19T03:21:40.692Z,12.75
2022-08-19T03:24:09.583Z,12.30
2022-08-19T03:26:40.888Z,10.82
2022-08-19T03:29:08.634Z,15.48
2022-08-19T03:31:45.077Z,12.80
2022-08-19T03:34:22.687Z,11.40
2022-08-19T03:36:49.676Z,13.32
2022-08-19T03:39:17.461Z,12.10
2022-08-19T03:41:48.565Z,14.50
2022-08-19T03:44:19.561Z,12.18
2022-08-19T03:46:58.499Z,11.00
2022-08-19T03:49:29.066Z,12.52
2022-08-19T03:51:57.839Z,14.30
2022-08-19T03:54:26.045Z,14.98
2022-08-19T03:56:54.691Z,13.32
2022-08-19T03:59:26.949Z,16.50
2022-08-19T04:01:56.749Z,13.00
2022-08-19T04:04:24.158Z,12.15
2022-08-19T04:09:19.557Z,13.38
2022-08-19T04:11:54.751Z,13.75
2022-08-19T04:14:26.941Z,13.85
2022-08-19T04:16:54.468Z,14.55
2022-08-19T04:19:21.822Z,11.90
2022-08-19T04:21:51.104Z,14.70
2022-08-19T04:24:19.622Z,12.60
2022-08-19T04:26:47.408Z,11.73
2022-08-19T04:29:18.314Z,13.07
2022-08-19T04:31:46.270Z,14.50
2022-08-19T04:34:16.168Z,12.18
2022-08-19T04:36:45.610Z,11.90
2022-08-19T04:39:17.600Z,13.30
2022-08-19T04:42:04.247Z,13.90
2022-08-19T04:44:33.484Z,14.38
2022-08-19T04:47:11.400Z,13.95
2022-08-19T04:49:38.620Z,13.90
2022-08-19T04:52:05.491Z,15.00
2022-08-19T04:54:38.220Z,12.15
2022-08-19T04:57:08.513Z,13.73
2022-08-19T04:59:36.640Z,13.30
2022-08-19T05:02:05.045Z,14.95
2022-08-19T05:04:33.203Z,13.32
2022-08-19T05:07:02.066Z,14.02
2022-08-19T05:09:39.066Z,14.23
2022-08-19T05:12:18.787Z,13.48
2022-08-19T05:14:48.282Z,12.85
2022-08-19T05:17:34.949Z,14.93
2022-08-19T05:20:21.091Z,17.13
2022-08-19T05:22:48.723Z,16.08
2022-08-19T05:25:22.227Z,13.77
2022-08-19T05:27:49.378Z,16.98
2022-08-19T05:30:17.125Z,14.57
2022-08-19T05:32:44.606Z,15.02
2022-08-19T05:35:12.857Z,15.10
2022-08-19T05:37:43.768Z,17.75
2022-08-19T05:40:13.649Z,17.17
2022-08-19T05:42:40.453Z,15.00
2022-08-19T05:45:08.214Z,17.77
2022-08-19T05:47:36.197Z,15.35
2022-08-19T05:50:09.666Z,14.27
2022-08-19T05:52:39.297Z,17.58
2022-08-19T05:55:11.501Z,18.02
2022-08-19T05:57:38.514Z,19.52
2022-08-19T06:00:10.785Z,18.08
2022-08-19T06:02:38.242Z,18.00
2022-08-19T06:05:08.339Z,21.15
2022-08-19T06:10:08.333Z,23.30
2022-08-19T06:12:37.525Z,23.65
2022-08-19T06:15:12.224Z,20.65
2022-08-19T06:17:39.322Z,25.10
2022-08-19T06:20:08.716Z,29.00
2022-08-19T06:22:54.913Z,31.83
2022-08-19T06:25:22.069Z,35.90
2022-08-19T06:28:13.377Z,35.72
2022-08-19T06:30:37.488Z,31.63
2022-08-19T06:33:04.347Z,36.85
2022-08-19T06:35:31.598Z,36.20
2022-08-19T06:37:58.612Z,42.42
2022-08-19T06:40:26.672Z,35.25
2022-08-19T06:42:54.360Z,42.17
2022-08-19T06:45:24.854Z,40.95
2022-08-19T06:51:08.583Z,44.72
2022-08-19T06:53:35.926Z,38.60
2022-08-19T06:56:05.774Z,45.30
2022-08-19T06:58:33.205Z,40.97
2022-08-19T07:01:07.158Z,50.80
2022-08-19T07:03:38.333Z,47.38
2022-08-19T07:06:09.838Z,52.80
2022-08-19T07:08:49.261Z,45.30
2022-08-19T07:11:21.730Z,49.45
2022-08-19T07:13:52.280Z,51.15
2022-08-19T07:16:27.339Z,48.88
2022-08-19T07:18:57.721Z,50.00
2022-08-19T07:21:29.468Z,53.28
2022-08-19T07:24:02.952Z,53.08
2022-08-19T07:26:39.975Z,45.53
2022-08-19T07:29:09.884Z,46.35
2022-08-19T07:31:37.910Z,49.45
2022-08-19T07:34:11.531Z,52.55
2022-08-19T07:36:41.867Z,53.10
2022-08-19T07:39:13.020Z,55.08
2022-08-19T07:41:40.402Z,42.95
2022-08-19T07:44:09.359Z,56.10
2022-08-19T07:46:39.741Z,45.78
2022-08-19T07:49:08.144Z,41.40
2022-08-19T07:51:36.334Z,42.92
2022-08-19T07:54:04.240Z,43.67
2022-08-19T07:56:34.384Z,54.20
2022-08-19T07:59:01.774Z,41.78
2022-08-19T08:01:29.384Z,43.78
2022-08-19T08:04:16.735Z,41.72
2022-08-19T08:07:03.611Z,42.88
2022-08-19T08:09:39.346Z,34.78
2022-08-19T08:12:30.753Z,42.40
2022-08-19T08:14:58.987Z,37.58
2022-08-19T08:17:48.756Z,42.38
2022-08-19T08:20:16.158Z,35.03
2022-08-19T08:23:06.480Z,35.40
2022-08-19T08:25:34.390Z,35.97
2022-08-19T08:28:03.896Z,31.27
2022-08-19T08:30:33.414Z,31.95
2022-08-19T08:33:02.470Z,42.70
2022-08-19T08:35:29.665Z,38.10
2022-08-19T08:37:57.802Z,32.50
2022-08-19T08:41:04.893Z,28.52
2022-08-19T08:43:38.485Z,34.92
2022-08-19T08:46:30.569Z,34.40
2022-08-19T08:49:34.568Z,31.92
2022-08-19T08:52:07.796Z,35.67
2022-08-19T08:54:48.940Z,38.13
2022-08-19T08:57:40.725Z,38.05
2022-08-19T09:00:15.830Z,34.83
2022-08-19T09:02:44.008Z,33.20
2022-08-19T09:05:16.508Z,27.58
2022-08-19T09:07:58.709Z,36.60
2022-08-19T09:10:43.967Z,30.90
2022-08-19T09:13:50.228Z,31.45
2022-08-19T09:16:28.001Z,29.88
2022-08-19T09:19:07.746Z,33.03
2022-08-19T09:21:35.898Z,26.02
2022-08-19T09:24:04.684Z,25.38
2022-08-19T09:26:48.366Z,23.13
2022-08-19T09:29:19.692Z,28.20
2022-08-19T09:31:52.235Z,23.10
2022-08-19T09:34:22.220Z,24.15
2022-08-19T09:36:54.682Z,21.23
2022-08-19T09:39:22.585Z,22.55
2022-08-19T09:41:50.994Z,21.75
2022-08-19T09:44:18.930Z,18.10
2022-08-19T09:46:48.191Z,16.95
2022-08-19T09:49:18.366Z,13.82
2022-08-19T09:51:50.356Z,19.77
2022-08-19T09:54:23.446Z,16.90
2022-08-19T09:56:51.242Z,14.75
2022-08-19T09:59:18.124Z,22.92
2022-08-19T10:01:44.973Z,24.02
2022-08-19T10:04:19.750Z,23.58
2022-08-19T10:06:57.914Z,13.52
2022-08-19T10:09:34.067Z,17.25
2022-08-19T10:12:02.983Z,15.52
2022-08-19T10:14:30.152Z,18.20
2022-08-19T10:16:57.590Z,14.15
2022-08-19T10:19:26.468Z,17.88
2022-08-19T10:21:55.570Z,15.50
2022-08-19T10:24:28.774Z,19.58
2022-08-19T10:26:58.852Z,15.50
2022-08-19T10:29:32.304Z,16.20
2022-08-19T10:32:03.226Z,12.05
2022-08-19T10:34:31.408Z,18.13
2022-08-19T10:37:01.258Z,16.63
2022-08-19T10:39:31.262Z,11.18
2022-08-19T10:41:59.022Z,14.77
2022-08-19T10:44:26.457Z,11.65
